KEGE/EGE METAR and TAF weather

Enter ICAO airport designator
Station Type Date Time Source
KEGE METAR 2022/01/29 10:56 UTC NOAA

KEGE 291056Z AUTO 11003KT 10SM CLR M20/M22 A3060 RMK AO2 SLP458 T12001222 FZRANO


Station Type Date Time Source
KEGE Decoded METAR 2022/01/29 10:56 UTC NOAA

Eagle County Regional, CO, United States (KEGE) 39-39N 106-55W
Jan 29, 2022 - 05:56 AM EST / 2022.01.29 1056 UTC
Wind: from the ESE (110 degrees) at 3 MPH (3 KT):0
Visibility: 10 mile(s):0
Sky conditions: clear
Temperature: -4.0 F (-20.0 C)
Dew Point: -8.0 F (-22.2 C)
Relative Humidity: 82%
Pressure (altimeter): 30.6 in. Hg (1036 hPa)
ob: KEGE 291056Z AUTO 11003KT 10SM CLR M20/M22 A3060 RMK AO2 SLP458 T12001222 FZRANO
cycle: 11

Station Type Date Time Source
KEGE TAF 2022/01/29 12:27 UTC NOAA

TAF KEGE 291124Z 2912/3012 VRB04KT P6SM SKC

Example: see airport list